createdAt,value
2018-11-06T00:00:15.722Z,15.20
2018-11-06T00:02:45.300Z,14.47
2018-11-06T00:05:15.591Z,14.93
2018-11-06T00:07:45.298Z,15.57
2018-11-06T00:10:14.110Z,14.77
2018-11-06T00:12:42.919Z,16.07
2018-11-06T00:15:11.842Z,15.93
2018-11-06T00:17:41.063Z,16.77
2018-11-06T00:20:12.082Z,14.97
2018-11-06T00:22:40.958Z,14.67
2018-11-06T00:25:11.050Z,14.83
2018-11-06T00:27:40.239Z,15.03
2018-11-06T00:30:12.080Z,14.73
2018-11-06T00:32:41.618Z,14.70
2018-11-06T00:35:11.778Z,15.13
2018-11-06T00:37:41.798Z,14.37
2018-11-06T00:40:10.900Z,15.70
2018-11-06T00:42:39.725Z,15.47
2018-11-06T00:45:11.967Z,14.68
2018-11-06T00:47:41.287Z,13.77
2018-11-06T00:50:11.415Z,14.83
2018-11-06T00:52:41.205Z,13.60
2018-11-06T00:55:10.491Z,14.23
2018-11-06T00:57:40.852Z,15.03
2018-11-06T01:00:13.553Z,14.90
2018-11-06T01:02:42.434Z,14.53
2018-11-06T01:05:12.091Z,14.53
2018-11-06T01:07:41.511Z,13.47
2018-11-06T01:10:10.753Z,16.33
2018-11-06T01:12:39.883Z,13.80
2018-11-06T01:15:11.304Z,13.53
2018-11-06T01:17:40.472Z,14.80
2018-11-06T01:20:12.556Z,14.47
2018-11-06T01:22:41.396Z,15.37
2018-11-06T01:25:10.698Z,14.70
2018-11-06T01:27:39.804Z,14.13
2018-11-06T01:30:11.994Z,14.43
2018-11-06T01:32:41.167Z,15.10
2018-11-06T01:35:11.391Z,14.50
2018-11-06T01:37:40.489Z,14.03
2018-11-06T01:40:12.152Z,15.27
2018-11-06T01:42:41.538Z,13.20
2018-11-06T01:45:12.355Z,15.60
2018-11-06T01:47:41.579Z,14.47
2018-11-06T01:50:18.051Z,16.60
2018-11-06T01:52:47.654Z,15.17
2018-11-06T01:55:16.481Z,14.47
2018-11-06T01:57:45.315Z,14.70
2018-11-06T02:00:16.551Z,15.57
2018-11-06T02:02:45.373Z,15.67
2018-11-06T02:05:15.278Z,14.85
2018-11-06T02:07:45.296Z,15.37
2018-11-06T02:10:14.923Z,15.77
2018-11-06T02:12:44.486Z,15.50
2018-11-06T02:15:13.315Z,16.10
2018-11-06T02:17:43.107Z,14.53
2018-11-06T02:20:12.993Z,16.17
2018-11-06T02:22:43.247Z,16.30
2018-11-06T02:25:27.623Z,15.30
2018-11-06T02:27:56.449Z,15.27
2018-11-06T02:30:25.245Z,14.27
2018-11-06T02:32:54.067Z,15.00
2018-11-06T02:35:22.887Z,16.63
2018-11-06T02:37:51.710Z,16.10
2018-11-06T02:40:20.539Z,14.40
2018-11-06T02:42:49.735Z,14.43
2018-11-06T02:45:18.546Z,15.83
2018-11-06T02:47:47.360Z,15.70
2018-11-06T02:50:16.195Z,16.10
2018-11-06T02:52:45.505Z,14.47
2018-11-06T02:55:14.835Z,15.77
2018-11-06T02:57:43.881Z,14.57
2018-11-06T03:00:15.615Z,15.00
2018-11-06T03:02:45.672Z,15.80
2018-11-06T03:05:14.508Z,15.20
2018-11-06T03:07:43.347Z,15.57
2018-11-06T03:10:13.100Z,14.73
2018-11-06T03:12:42.794Z,15.17
2018-11-06T03:15:12.803Z,15.87
2018-11-06T03:17:41.695Z,14.73
2018-11-06T03:20:11.296Z,15.90
2018-11-06T03:22:41.118Z,15.37
2018-11-06T03:25:10.200Z,14.80
2018-11-06T03:27:39.035Z,15.70
2018-11-06T03:30:12.132Z,15.20
2018-11-06T03:32:40.938Z,16.73
2018-11-06T03:35:11.068Z,16.13
2018-11-06T03:37:40.121Z,16.27
2018-11-06T03:40:09.692Z,15.70
2018-11-06T03:42:39.203Z,16.17
2018-11-06T03:45:08.718Z,17.13
2018-11-06T03:47:37.718Z,17.30
2018-11-06T03:50:09.999Z,17.30
2018-11-06T03:52:38.826Z,16.20
2018-11-06T03:55:08.782Z,16.40
2018-11-06T03:57:37.755Z,15.97
2018-11-06T04:00:12.755Z,15.30
2018-11-06T04:02:42.302Z,15.53
2018-11-06T04:05:11.596Z,15.57
2018-11-06T04:07:40.399Z,15.67
2018-11-06T04:10:10.511Z,14.97
2018-11-06T04:12:40.020Z,16.10
2018-11-06T04:15:09.335Z,17.73
2018-11-06T04:17:38.151Z,17.67
2018-11-06T04:20:09.150Z,17.92
2018-11-06T04:22:38.073Z,18.10
2018-11-06T04:25:09.299Z,17.83
2018-11-06T04:27:38.110Z,17.33
2018-11-06T04:30:11.488Z,17.50
2018-11-06T04:32:40.778Z,17.27
2018-11-06T04:35:10.175Z,16.93
2018-11-06T04:37:39.791Z,17.20
2018-11-06T04:40:11.041Z,17.67
2018-11-06T04:42:39.846Z,17.53
2018-11-06T04:45:10.037Z,17.47
2018-11-06T04:47:38.843Z,17.87
2018-11-06T04:50:09.357Z,17.17
2018-11-06T04:52:38.261Z,16.67
2018-11-06T04:55:10.358Z,17.60
2018-11-06T04:57:39.187Z,18.00
2018-11-06T05:00:11.404Z,16.93
2018-11-06T05:02:40.883Z,18.70
2018-11-06T05:05:10.287Z,15.90
2018-11-06T05:07:39.648Z,17.47
2018-11-06T05:10:11.246Z,18.67
2018-11-06T05:12:40.046Z,19.37
2018-11-06T05:15:10.886Z,17.80
2018-11-06T05:17:39.763Z,19.80
2018-11-06T05:20:13.188Z,18.57
2018-11-06T05:22:42.854Z,19.80
2018-11-06T05:25:18.833Z,17.77
2018-11-06T05:27:47.631Z,18.87
2018-11-06T05:30:16.497Z,17.67
2018-11-06T05:32:45.383Z,18.73
2018-11-06T05:35:14.207Z,19.87
2018-11-06T05:37:43.022Z,18.43
2018-11-06T05:40:29.468Z,17.53
2018-11-06T05:42:58.283Z,19.07
2018-11-06T05:45:27.240Z,18.73
2018-11-06T05:47:56.053Z,19.70
2018-11-06T05:50:24.888Z,18.30
2018-11-06T05:52:53.710Z,19.43
2018-11-06T05:55:22.536Z,19.40
2018-11-06T05:57:51.357Z,20.40
2018-11-06T06:00:20.311Z,20.10
2018-11-06T06:02:49.383Z,20.47
2018-11-06T06:05:18.261Z,18.87
2018-11-06T06:07:47.145Z,20.43
2018-11-06T06:10:15.980Z,18.90
2018-11-06T06:12:44.821Z,20.47
2018-11-06T06:15:13.649Z,21.13
2018-11-06T06:17:42.486Z,21.00
2018-11-06T06:20:11.318Z,19.57
2018-11-06T06:22:40.200Z,20.20
2018-11-06T06:25:09.515Z,20.70
2018-11-06T06:27:38.706Z,21.27
2018-11-06T06:30:12.431Z,22.60
2018-11-06T06:32:41.315Z,20.27
2018-11-06T06:35:10.510Z,22.07
2018-11-06T06:37:39.287Z,22.03
2018-11-06T06:40:11.499Z,21.77
2018-11-06T06:42:40.547Z,21.07
2018-11-06T06:45:11.906Z,21.10
2018-11-06T06:47:40.830Z,21.87
2018-11-06T06:50:12.541Z,22.47
2018-11-06T06:52:41.806Z,24.10
2018-11-06T06:55:11.964Z,26.10
2018-11-06T06:57:42.083Z,24.50
2018-11-06T07:00:15.597Z,26.40
2018-11-06T07:02:44.510Z,24.67
2018-11-06T07:05:14.624Z,25.72
2018-11-06T07:07:43.997Z,22.60
2018-11-06T07:10:15.127Z,23.97
2018-11-06T07:12:45.320Z,23.90
2018-11-06T07:15:15.195Z,23.73
2018-11-06T07:17:45.197Z,23.67
2018-11-06T07:20:15.424Z,25.70
2018-11-06T07:22:44.283Z,24.87
2018-11-06T07:25:13.938Z,24.57
2018-11-06T07:27:44.452Z,26.03
2018-11-06T07:30:15.599Z,26.60
2018-11-06T07:32:45.109Z,24.10
2018-11-06T07:35:14.716Z,25.33
2018-11-06T07:37:44.518Z,26.03
2018-11-06T07:40:14.543Z,24.03
2018-11-06T07:42:43.384Z,24.67
2018-11-06T07:45:13.958Z,25.27
2018-11-06T07:47:42.876Z,23.20
2018-11-06T07:50:12.498Z,25.90
2018-11-06T07:52:41.479Z,26.33
2018-11-06T07:55:13.520Z,24.03
2018-11-06T07:57:42.707Z,25.63
2018-11-06T08:00:17.380Z,25.40
2018-11-06T08:02:47.080Z,25.50
2018-11-06T08:05:16.248Z,25.63
2018-11-06T08:07:45.854Z,26.20
2018-11-06T08:10:14.747Z,25.97
2018-11-06T08:12:44.835Z,26.17
2018-11-06T08:15:14.051Z,26.87
2018-11-06T08:17:44.153Z,27.53
2018-11-06T08:20:13.122Z,25.87
2018-11-06T08:22:42.003Z,26.20
2018-11-06T08:25:12.098Z,26.83
2018-11-06T08:27:41.811Z,25.33
2018-11-06T08:30:11.420Z,24.07
2018-11-06T08:32:40.757Z,26.27
2018-11-06T08:35:14.815Z,26.05
2018-11-06T08:37:44.217Z,26.00
2018-11-06T08:40:14.339Z,23.20
2018-11-06T08:42:43.151Z,25.90
2018-11-06T08:45:13.057Z,24.17
2018-11-06T08:47:42.863Z,25.73
2018-11-06T08:50:13.068Z,24.03
2018-11-06T08:52:42.175Z,25.57
2018-11-06T08:55:12.195Z,24.70
2018-11-06T08:57:41.699Z,25.47
2018-11-06T09:00:13.234Z,26.10
2018-11-06T09:02:42.685Z,24.87
2018-11-06T09:05:12.975Z,25.27
2018-11-06T09:07:41.846Z,26.27
2018-11-06T09:10:12.226Z,26.37
2018-11-06T09:12:41.284Z,24.47
2018-11-06T09:15:13.000Z,26.85
2018-11-06T09:17:41.820Z,25.30
2018-11-06T09:20:12.134Z,24.13
2018-11-06T09:22:41.549Z,25.30
2018-11-06T09:25:12.350Z,25.53
2018-11-06T09:27:41.898Z,24.57
2018-11-06T09:30:13.791Z,23.77
2018-11-06T09:32:42.624Z,24.63
2018-11-06T09:35:12.175Z,24.57
2018-11-06T09:37:41.490Z,23.20
2018-11-06T09:40:12.827Z,24.70
2018-11-06T09:42:42.221Z,23.50
2018-11-06T09:45:11.806Z,24.37
2018-11-06T09:47:40.548Z,24.53
2018-11-06T09:50:12.612Z,22.53
2018-11-06T09:52:41.883Z,24.47
2018-11-06T09:55:10.745Z,24.67
2018-11-06T09:57:39.550Z,24.47
2018-11-06T10:00:11.562Z,25.80
2018-11-06T10:02:40.716Z,24.20
2018-11-06T10:05:10.330Z,23.30
2018-11-06T10:07:39.189Z,22.07
2018-11-06T10:10:10.875Z,21.55
2018-11-06T10:12:40.169Z,24.00
2018-11-06T10:15:11.657Z,24.80
2018-11-06T10:17:41.583Z,23.83
2018-11-06T10:20:11.439Z,25.07
2018-11-06T10:22:40.756Z,22.97
2018-11-06T10:25:09.688Z,23.07
2018-11-06T10:27:39.143Z,25.50
2018-11-06T10:30:11.772Z,23.95
2018-11-06T10:32:41.540Z,22.77
2018-11-06T10:35:10.603Z,22.27
2018-11-06T10:37:39.487Z,23.67
2018-11-06T10:40:13.483Z,23.95
2018-11-06T10:42:43.107Z,22.97
2018-11-06T10:45:11.919Z,23.77
2018-11-06T10:47:40.812Z,22.40
2018-11-06T10:50:11.221Z,23.87
2018-11-06T10:52:40.252Z,23.53
2018-11-06T10:55:09.542Z,23.33
2018-11-06T10:57:39.600Z,23.63
2018-11-06T11:00:15.983Z,22.37
2018-11-06T11:02:50.733Z,23.27
2018-11-06T11:05:20.159Z,21.83
2018-11-06T11:07:49.122Z,23.73
2018-11-06T11:10:17.970Z,23.55
2018-11-06T11:12:46.786Z,23.73
2018-11-06T11:15:15.604Z,23.33
2018-11-06T11:17:44.424Z,23.87
2018-11-06T11:20:14.298Z,21.57
2018-11-06T11:22:43.269Z,23.07
2018-11-06T11:25:14.484Z,20.80
2018-11-06T11:27:43.863Z,20.33
2018-11-06T11:30:14.678Z,22.77
2018-11-06T11:32:45.566Z,22.73
2018-11-06T11:35:14.836Z,21.90
2018-11-06T11:37:43.791Z,22.17
2018-11-06T11:40:13.657Z,22.93
2018-11-06T11:42:42.743Z,23.33
2018-11-06T11:45:12.853Z,21.03
2018-11-06T11:47:42.210Z,21.87
2018-11-06T11:50:12.608Z,21.17
2018-11-06T11:52:41.566Z,22.57
2018-11-06T11:55:10.616Z,21.83
2018-11-06T11:57:39.896Z,21.10
2018-11-06T12:00:12.969Z,21.17
2018-11-06T12:02:41.732Z,22.43
2018-11-06T12:05:11.381Z,21.00
2018-11-06T12:07:40.967Z,20.77
2018-11-06T12:10:10.984Z,21.33
2018-11-06T12:12:39.982Z,22.07
2018-11-06T12:15:11.853Z,22.17
2018-11-06T12:17:41.062Z,21.97
2018-11-06T12:20:10.049Z,21.13
2018-11-06T12:22:39.332Z,18.90
2018-11-06T12:25:08.784Z,20.43
2018-11-06T12:27:37.856Z,19.20
2018-11-06T12:30:11.243Z,20.53
2018-11-06T12:32:40.571Z,20.07
2018-11-06T12:35:10.850Z,18.77
2018-11-06T12:37:39.800Z,21.17
2018-11-06T12:40:10.275Z,21.30
2018-11-06T12:42:39.591Z,20.40
2018-11-06T12:45:10.947Z,21.45
2018-11-06T12:47:40.008Z,20.13
2018-11-06T12:50:09.264Z,19.30
2018-11-06T12:52:38.856Z,20.40
2018-11-06T12:55:09.867Z,26.25
2018-11-06T12:57:38.848Z,21.00
2018-11-06T13:00:13.299Z,19.70
2018-11-06T13:02:42.233Z,18.90
2018-11-06T13:05:11.148Z,20.00
2018-11-06T13:07:41.387Z,20.60
2018-11-06T13:10:10.875Z,20.00
2018-11-06T13:12:40.025Z,19.30
2018-11-06T13:15:09.086Z,18.13
2018-11-06T13:17:38.085Z,20.77
2018-11-06T13:25:09.563Z,18.33
2018-11-06T13:27:39.371Z,19.43
2018-11-06T13:30:15.639Z,20.35
2018-11-06T13:32:45.455Z,20.53
2018-11-06T13:35:15.063Z,20.77
2018-11-06T13:37:43.954Z,20.90
2018-11-06T13:40:14.063Z,20.83
2018-11-06T13:42:43.199Z,20.47
2018-11-06T13:45:14.442Z,21.03
2018-11-06T13:47:43.211Z,20.40
2018-11-06T13:50:12.048Z,21.23
2018-11-06T13:52:40.886Z,20.30
2018-11-06T13:55:11.309Z,18.43
2018-11-06T13:57:40.290Z,22.90
2018-11-06T14:00:16.526Z,21.20
2018-11-06T14:02:45.335Z,19.33
2018-11-06T14:05:14.600Z,21.43
2018-11-06T14:07:43.439Z,20.70
2018-11-06T14:10:12.274Z,21.80
2018-11-06T14:12:41.970Z,19.43
2018-11-06T14:15:10.797Z,21.50
2018-11-06T14:17:39.818Z,20.77
2018-11-06T14:20:11.503Z,21.23
2018-11-06T14:22:40.296Z,20.90
2018-11-06T14:25:11.200Z,20.60
2018-11-06T14:27:40.093Z,22.37
2018-11-06T14:30:11.779Z,22.80
2018-11-06T14:32:40.597Z,22.93
2018-11-06T14:35:11.104Z,21.50
2018-11-06T14:37:40.776Z,23.83
2018-11-06T14:40:10.595Z,23.37
2018-11-06T14:42:40.241Z,23.57
2018-11-06T14:45:11.261Z,24.53
2018-11-06T14:47:40.139Z,23.87
2018-11-06T14:50:09.875Z,20.77
2018-11-06T14:52:38.836Z,21.60
2018-11-06T14:55:10.833Z,21.07
2018-11-06T14:57:40.004Z,21.30
2018-11-06T15:00:14.732Z,21.70
2018-11-06T15:02:44.756Z,21.53
2018-11-06T15:05:13.838Z,22.10
2018-11-06T15:07:43.060Z,22.53
2018-11-06T15:10:12.252Z,20.83
2018-11-06T15:12:41.258Z,20.53
2018-11-06T15:15:11.298Z,21.23
2018-11-06T15:17:41.055Z,21.77
2018-11-06T15:20:13.515Z,20.93
2018-11-06T15:22:43.026Z,22.47
2018-11-06T15:25:12.569Z,22.27
2018-11-06T15:27:41.462Z,21.13
2018-11-06T15:30:12.892Z,24.97
2018-11-06T15:32:42.088Z,20.77
2018-11-06T15:35:12.419Z,20.70
2018-11-06T15:37:41.669Z,27.67
2018-11-06T15:40:13.781Z,67.00
2018-11-06T15:42:42.653Z,33.80
2018-11-06T15:45:12.840Z,27.07
2018-11-06T15:47:42.528Z,23.87
2018-11-06T15:50:13.239Z,22.33
2018-11-06T15:52:42.635Z,22.73
2018-11-06T15:55:11.578Z,24.97
2018-11-06T15:57:40.396Z,21.37
2018-11-06T16:00:17.099Z,22.60
2018-11-06T16:02:46.274Z,21.87
2018-11-06T16:05:15.152Z,21.83
2018-11-06T16:07:44.035Z,23.40
2018-11-06T16:10:15.565Z,22.47
2018-11-06T16:12:45.012Z,23.33
2018-11-06T16:15:13.879Z,22.93
2018-11-06T16:17:42.677Z,22.27
2018-11-06T16:20:14.215Z,22.63
2018-11-06T16:22:43.359Z,23.20
2018-11-06T16:25:13.994Z,23.73
2018-11-06T16:27:43.208Z,23.40
2018-11-06T16:30:15.468Z,24.15
2018-11-06T16:32:44.430Z,24.93
2018-11-06T16:35:14.613Z,27.37
2018-11-06T16:37:44.183Z,24.47
2018-11-06T16:40:13.991Z,24.97
2018-11-06T16:42:43.721Z,26.83
2018-11-06T16:45:17.923Z,28.27
2018-11-06T16:47:47.749Z,24.80
2018-11-06T16:50:17.347Z,22.57
2018-11-06T16:52:46.349Z,23.83
2018-11-06T16:55:15.745Z,22.90
2018-11-06T16:57:45.131Z,24.87
2018-11-06T17:00:15.922Z,26.23
2018-11-06T17:02:45.085Z,27.33
2018-11-06T17:05:15.002Z,25.13
2018-11-06T17:07:44.192Z,23.27
2018-11-06T17:10:13.942Z,28.03
2018-11-06T17:12:42.751Z,28.97
2018-11-06T17:15:14.577Z,28.37
2018-11-06T17:17:43.975Z,26.23
2018-11-06T17:20:13.362Z,26.80
2018-11-06T17:22:42.551Z,26.10
2018-11-06T17:25:12.785Z,27.30
2018-11-06T17:27:41.591Z,24.47
2018-11-06T17:30:12.829Z,24.70
2018-11-06T17:32:42.039Z,25.60
2018-11-06T17:35:12.979Z,24.17
2018-11-06T17:37:42.136Z,24.70
2018-11-06T17:40:15.857Z,26.83
2018-11-06T17:42:44.776Z,24.43
2018-11-06T17:45:15.148Z,23.27
2018-11-06T17:47:44.059Z,24.43
2018-11-06T17:50:14.266Z,25.20
2018-11-06T17:52:43.133Z,25.43
2018-11-06T17:55:13.293Z,23.50
2018-11-06T17:57:42.179Z,26.80
2018-11-06T18:00:16.947Z,25.60
2018-11-06T18:02:45.999Z,26.23
2018-11-06T18:05:15.711Z,26.10
2018-11-06T18:07:44.696Z,23.37
2018-11-06T18:10:14.993Z,24.60
2018-11-06T18:12:44.136Z,24.37
2018-11-06T18:15:12.998Z,24.15
2018-11-06T18:17:42.245Z,25.50
2018-11-06T18:20:12.241Z,25.93
2018-11-06T18:22:42.236Z,26.17
2018-11-06T18:25:12.073Z,26.00
2018-11-06T18:27:41.269Z,26.77
2018-11-06T18:30:13.859Z,27.27
2018-11-06T18:32:42.725Z,25.80
2018-11-06T18:35:12.630Z,24.97
2018-11-06T18:37:41.500Z,26.00
2018-11-06T18:40:14.279Z,27.17
2018-11-06T18:42:44.433Z,24.57
2018-11-06T18:45:14.044Z,27.53
2018-11-06T18:47:42.901Z,26.63
2018-11-06T18:50:13.186Z,30.77
2018-11-06T18:52:43.016Z,30.27
2018-11-06T18:55:11.865Z,30.93
2018-11-06T18:57:40.783Z,30.30
2018-11-06T19:00:13.543Z,26.80
2018-11-06T19:02:43.754Z,27.00
2018-11-06T19:05:12.883Z,27.17
2018-11-06T19:07:41.731Z,27.47
2018-11-06T19:10:12.174Z,25.83
2018-11-06T19:12:41.268Z,26.87
2018-11-06T19:15:13.351Z,26.67
2018-11-06T19:17:42.825Z,25.90
2018-11-06T19:20:12.322Z,27.13
2018-11-06T19:22:41.641Z,26.33
2018-11-06T19:25:11.363Z,26.50
2018-11-06T19:27:40.247Z,25.27
2018-11-06T19:30:12.764Z,29.03
2018-11-06T19:32:41.765Z,25.33
2018-11-06T19:35:10.582Z,27.63
2018-11-06T19:37:40.010Z,27.03
2018-11-06T19:40:11.288Z,28.40
2018-11-06T19:42:41.858Z,27.90
2018-11-06T19:45:11.450Z,29.73
2018-11-06T19:47:40.274Z,27.30
2018-11-06T19:50:11.367Z,27.40
2018-11-06T19:52:40.535Z,26.73
2018-11-06T19:55:10.599Z,27.57
2018-11-06T19:57:39.517Z,27.93
2018-11-06T20:00:14.888Z,26.37
2018-11-06T20:02:45.467Z,27.13
2018-11-06T20:05:14.344Z,27.63
2018-11-06T20:07:44.093Z,25.97
2018-11-06T20:10:14.430Z,26.70
2018-11-06T20:12:44.250Z,31.37
2018-11-06T20:15:14.165Z,29.20
2018-11-06T20:17:43.487Z,28.33
2018-11-06T20:20:15.864Z,27.33
2018-11-06T20:22:45.226Z,27.27
2018-11-06T20:25:14.342Z,26.77
2018-11-06T20:27:43.626Z,28.33
2018-11-06T20:30:15.253Z,26.30
2018-11-06T20:32:44.163Z,27.07
2018-11-06T20:35:13.286Z,28.83
2018-11-06T20:37:42.133Z,28.43
2018-11-06T20:40:13.458Z,27.63
2018-11-06T20:42:43.402Z,29.23
2018-11-06T20:45:13.447Z,28.97
2018-11-06T20:47:42.776Z,29.67
2018-11-06T20:50:16.901Z,28.70
2018-11-06T20:52:45.924Z,29.67
2018-11-06T20:55:15.706Z,30.23
2018-11-06T20:57:44.756Z,30.63
2018-11-06T21:00:19.463Z,29.37
2018-11-06T21:02:48.900Z,28.73
2018-11-06T21:05:17.803Z,27.60
2018-11-06T21:07:47.200Z,27.67
2018-11-06T21:10:17.971Z,29.23
2018-11-06T21:12:47.146Z,29.53
2018-11-06T21:15:15.982Z,29.87
2018-11-06T21:17:45.378Z,27.40
2018-11-06T21:20:14.979Z,25.93
2018-11-06T21:22:43.781Z,27.27
2018-11-06T21:25:13.048Z,27.07
2018-11-06T21:27:42.304Z,26.00
2018-11-06T21:30:14.623Z,27.83
2018-11-06T21:32:44.535Z,27.20
2018-11-06T21:35:13.382Z,26.57
2018-11-06T21:37:42.595Z,27.47
2018-11-06T21:40:13.947Z,27.33
2018-11-06T21:42:43.733Z,27.77
2018-11-06T21:45:13.394Z,28.53
2018-11-06T21:47:43.146Z,24.93
2018-11-06T21:50:12.901Z,26.50
2018-11-06T21:52:41.726Z,25.63
2018-11-06T21:55:11.795Z,26.00
2018-11-06T21:57:41.179Z,25.47
2018-11-06T22:00:13.650Z,28.47
2018-11-06T22:02:42.462Z,26.77
2018-11-06T22:05:13.537Z,26.33
2018-11-06T22:07:42.596Z,28.07
2018-11-06T22:10:12.926Z,24.43
2018-11-06T22:12:42.516Z,26.20
2018-11-06T22:15:26.084Z,26.17
2018-11-06T22:17:54.887Z,25.70
2018-11-06T22:20:23.737Z,26.17
2018-11-06T22:22:52.558Z,26.20
2018-11-06T22:25:21.370Z,25.07
2018-11-06T22:27:50.175Z,27.90
2018-11-06T22:30:19.039Z,26.87
2018-11-06T22:32:47.914Z,27.50
2018-11-06T22:35:17.736Z,26.73
2018-11-06T22:37:46.989Z,26.47
2018-11-06T22:40:16.807Z,27.37
2018-11-06T22:42:46.112Z,28.37
2018-11-06T22:45:16.136Z,24.97
2018-11-06T22:47:44.962Z,26.40
2018-11-06T22:50:15.071Z,25.37
2018-11-06T22:52:44.548Z,24.97
2018-11-06T22:55:13.460Z,27.37
2018-11-06T22:57:42.383Z,27.37
2018-11-06T23:00:18.172Z,25.43
2018-11-06T23:02:46.992Z,25.17
2018-11-06T23:05:15.836Z,26.70
2018-11-06T23:07:50.054Z,26.67
2018-11-06T23:10:18.871Z,25.33
2018-11-06T23:12:47.678Z,26.13
2018-11-06T23:15:16.544Z,24.63
2018-11-06T23:17:45.376Z,27.90
2018-11-06T23:20:14.193Z,26.17
2018-11-06T23:22:43.535Z,24.87
2018-11-06T23:25:12.467Z,25.20
2018-11-06T23:27:41.624Z,25.17
2018-11-06T23:30:12.761Z,24.73
2018-11-06T23:32:41.644Z,26.77
2018-11-06T23:35:10.499Z,27.13
2018-11-06T23:37:39.952Z,23.53
2018-11-06T23:40:09.765Z,25.77
2018-11-06T23:42:38.758Z,26.10
2018-11-06T23:45:08.940Z,24.93
2018-11-06T23:47:37.742Z,23.90
2018-11-06T23:50:08.291Z,24.37
2018-11-06T23:52:37.177Z,22.20
2018-11-06T23:55:06.201Z,25.17
2018-11-06T23:57:35.076Z,25.17
